Time;durP1;ratioP1;P1;durP2;ratioP2;P2;SDS_P1;SDS_P2;PMS_P1;PMS_P2;Temp;Humidity;BMP_temperature;BMP_pressure;BME280_temperature;BME280_humidity;BME280_pressure;Samples;Min_cycle;Max_cycle;Signal;HPM_P1;HPM_P2
2022/05/27 00:01:39;;;;;;;4.47;2.90;;;10.50;99.90;;;;;;5035383;28;20042;-86
2022/05/27 00:04:05;;;;;;;5.38;3.28;;;10.50;99.90;;;;;;5038677;28;20111;-87
2022/05/27 00:06:31;;;;;;;4.22;3.00;;;10.50;99.90;;;;;;5038809;28;20120;-89
2022/05/27 00:08:57;;;;;;;4.95;3.28;;;10.50;99.90;;;;;;5036874;28;20032;-87
2022/05/27 00:11:23;;;;;;;5.63;3.65;;;10.50;99.90;;;;;;5037102;28;20025;-88
2022/05/27 00:13:51;;;;;;;4.32;3.33;;;10.50;99.90;;;;;;5037119;28;20037;-88
2022/05/27 00:16:16;;;;;;;6.63;3.50;;;10.60;99.90;;;;;;5032679;28;20477;-88
2022/05/27 00:18:42;;;;;;;7.00;3.72;;;10.60;99.90;;;;;;5036905;28;20033;-88
2022/05/27 00:21:09;;;;;;;5.90;3.67;;;10.60;99.90;;;;;;5035617;28;20025;-89
2022/05/27 00:23:37;;;;;;;5.18;3.42;;;10.60;99.90;;;;;;5039871;28;20104;-88
2022/05/27 00:26:03;;;;;;;5.13;3.53;;;10.60;99.90;;;;;;5040773;28;20496;-88
2022/05/27 00:28:29;;;;;;;5.07;3.33;;;10.50;99.90;;;;;;5040509;28;20135;-88
2022/05/27 00:30:55;;;;;;;5.72;3.33;;;10.50;99.90;;;;;;5039691;28;20131;-89
2022/05/27 00:33:22;;;;;;;4.72;3.20;;;10.40;99.90;;;;;;5040822;28;20033;-88
2022/05/27 00:35:48;;;;;;;5.97;3.20;;;10.30;99.90;;;;;;5035497;28;20041;-87
2022/05/27 00:38:13;;;;;;;4.75;3.53;;;10.30;99.90;;;;;;5037658;28;20519;-87
2022/05/27 00:40:43;;;;;;;5.18;3.47;;;10.30;99.90;;;;;;5036445;28;20033;-88
2022/05/27 00:43:09;;;;;;;7.30;3.60;;;10.20;99.90;;;;;;5035060;28;20694;-89
2022/05/27 00:45:37;;;;;;;4.55;3.50;;;10.20;99.90;;;;;;5048598;28;20044;-88
2022/05/27 00:48:09;;;;;;;5.80;3.33;;;10.20;99.90;;;;;;5035366;28;20497;-88
2022/05/27 00:50:40;;;;;;;5.78;3.15;;;10.10;99.90;;;;;;5041199;28;20025;-87
2022/05/27 00:53:07;;;;;;;7.10;3.28;;;10.10;99.90;;;;;;5038691;28;20021;-88
2022/05/27 00:55:41;;;;;;;4.82;3.40;;;10.10;99.90;;;;;;5037178;28;20029;-87
2022/05/27 00:58:06;;;;;;;5.90;3.80;;;10.10;99.90;;;;;;5039345;28;20037;-87
2022/05/27 01:00:33;;;;;;;5.50;3.40;;;10.00;99.90;;;;;;5035321;28;20052;-87
2022/05/27 01:03:00;;;;;;;6.93;3.72;;;10.00;99.90;;;;;;5035133;28;20033;-87
2022/05/27 01:05:26;;;;;;;6.57;4.45;;;10.00;99.90;;;;;;5034395;28;20078;-87
2022/05/27 01:07:58;;;;;;;8.38;5.43;;;10.00;99.90;;;;;;5038523;28;20080;-85
2022/05/27 01:10:26;;;;;;;6.45;4.10;;;10.00;99.90;;;;;;5037754;28;20033;-88
2022/05/27 01:12:54;;;;;;;7.40;4.93;;;10.10;99.90;;;;;;5034679;28;20033;-88
2022/05/27 01:15:26;;;;;;;9.60;4.47;;;10.20;99.90;;;;;;5033860;28;20030;-87
2022/05/27 01:20:18;;;;;;;7.88;4.25;;;10.20;99.90;;;;;;5034355;28;20040;-88
2022/05/27 01:22:03;;;;;;;5.93;4.30;;;10.10;99.90;;;;;;5036086;28;20069;-89
2022/05/27 01:25:28;;;;;;;7.68;5.10;;;10.10;99.90;;;;;;5028817;28;20037;-88
2022/05/27 01:28:58;;;;;;;8.05;4.50;;;10.10;99.90;;;;;;4922071;28;20145;-88
2022/05/27 01:31:40;;;;;;;6.78;3.92;;;10.10;99.90;;;;;;4988130;28;20044;-88
2022/05/27 01:34:45;;;;;;;7.47;4.20;;;10.20;99.90;;;;;;5037413;28;20036;-89
2022/05/27 01:37:20;;;;;;;9.02;4.13;;;10.30;99.90;;;;;;5036449;28;20033;-88
2022/05/27 01:39:52;;;;;;;8.65;4.50;;;10.50;99.90;;;;;;5029331;28;20036;-88
2022/05/27 01:42:30;;;;;;;5.55;4.35;;;10.50;99.90;;;;;;5034589;28;20034;-88
2022/05/27 01:45:02;;;;;;;6.18;3.63;;;10.60;99.90;;;;;;5050495;28;20526;-88
2022/05/27 01:47:31;;;;;;;7.97;3.72;;;10.70;99.90;;;;;;5036535;28;20033;-87
2022/05/27 01:50:22;;;;;;;6.47;3.55;;;10.70;99.90;;;;;;5036039;28;20025;-87
2022/05/27 01:52:53;;;;;;;9.82;4.00;;;10.70;99.90;;;;;;5039462;28;20552;-88
2022/05/27 01:55:27;;;;;;;5.65;3.92;;;10.70;99.90;;;;;;5035050;28;20044;-89
2022/05/27 01:58:08;;;;;;;5.30;3.75;;;10.70;99.90;;;;;;5040602;28;20499;-86
2022/05/27 02:00:36;;;;;;;7.30;3.85;;;10.90;99.90;;;;;;5018907;28;20404;-86
2022/05/27 02:03:10;;;;;;;7.68;3.90;;;10.90;99.90;;;;;;5019739;28;20068;-85
2022/05/27 02:05:42;;;;;;;6.00;4.38;;;10.90;99.90;;;;;;5032688;28;20048;-86
2022/05/27 02:08:20;;;;;;;6.68;4.15;;;10.90;99.90;;;;;;5029304;28;20266;-86
2022/05/27 02:10:59;;;;;;;5.35;3.47;;;10.90;99.90;;;;;;5032983;28;20018;-86
2022/05/27 02:13:34;;;;;;;7.65;4.00;;;10.90;99.90;;;;;;5034050;28;20060;-87
2022/05/27 02:16:01;;;;;;;4.85;3.80;;;10.90;99.90;;;;;;5033190;28;20025;-86
2022/05/27 02:18:34;;;;;;;5.03;3.30;;;10.80;99.90;;;;;;5033087;28;20020;-85
2022/05/27 02:21:05;;;;;;;6.05;3.75;;;10.90;99.90;;;;;;5038607;28;20033;-88
2022/05/27 02:23:48;;;;;;;7.07;3.80;;;10.90;99.90;;;;;;5039979;28;20033;-85
2022/05/27 02:26:18;;;;;;;6.90;3.10;;;10.90;99.90;;;;;;5035262;28;20041;-86
2022/05/27 02:28:50;;;;;;;5.90;4.17;;;10.90;99.90;;;;;;5039805;28;20033;-89
2022/05/27 02:31:25;;;;;;;4.20;3.22;;;10.80;99.90;;;;;;5036399;28;20497;-87
2022/05/27 02:36:53;;;;;;;4.80;3.75;;;10.90;99.90;;;;;;5031315;28;20479;-88
2022/05/27 02:39:19;;;;;;;6.03;3.10;;;11.00;99.90;;;;;;5035007;28;20040;-87
2022/05/27 02:42:16;;;;;;;28.77;3.88;;;11.00;99.90;;;;;;5033473;28;20025;-88
2022/05/27 02:45:17;;;;;;;6.03;3.65;;;11.00;99.90;;;;;;5030276;28;20279;-88
2022/05/27 02:47:49;;;;;;;4.65;3.58;;;11.00;99.90;;;;;;5027638;28;20103;-88
2022/05/27 02:50:26;;;;;;;5.75;3.30;;;11.10;99.90;;;;;;5036178;28;20026;-88
2022/05/27 02:53:11;;;;;;;4.07;3.40;;;11.10;99.90;;;;;;5037840;28;20052;-85
2022/05/27 02:56:12;;;;;;;4.70;3.22;;;11.10;99.90;;;;;;5039999;28;20129;-87
2022/05/27 02:58:38;;;;;;;4.45;3.28;;;11.10;99.90;;;;;;5053300;28;20496;-87
2022/05/27 03:01:04;;;;;;;5.07;3.20;;;11.10;99.90;;;;;;5033691;28;20047;-85
2022/05/27 03:03:30;;;;;;;4.10;3.25;;;11.00;99.90;;;;;;5032322;28;20396;-87
2022/05/27 03:06:24;;;;;;;5.88;3.60;;;11.10;99.90;;;;;;5019118;28;20043;-87
2022/05/27 03:09:00;;;;;;;4.47;3.13;;;11.00;99.90;;;;;;5035679;28;20033;-88
2022/05/27 03:11:51;;;;;;;7.85;3.72;;;11.00;99.90;;;;;;5035687;28;20032;-89
2022/05/27 03:14:45;;;;;;;4.88;3.35;;;11.10;99.90;;;;;;5031473;28;20021;-88
2022/05/27 03:17:28;;;;;;;4.50;2.92;;;11.10;99.90;;;;;;5032973;28;20029;-88
2022/05/27 03:20:52;;;;;;;3.67;3.20;;;11.20;99.90;;;;;;5036928;28;20028;-89
2022/05/27 03:24:02;;;;;;;5.22;3.03;;;11.20;99.90;;;;;;5040535;28;20029;-88
2022/05/27 03:26:52;;;;;;;4.75;2.75;;;11.10;99.90;;;;;;5042274;28;20036;-89
2022/05/27 03:29:34;;;;;;;4.50;3.17;;;11.00;99.90;;;;;;5035935;28;20025;-87
2022/05/27 03:32:36;;;;;;;3.80;3.03;;;10.90;99.90;;;;;;5035329;28;20029;-88
2022/05/27 03:35:14;;;;;;;5.75;3.03;;;10.80;99.90;;;;;;5048530;28;20136;-87
2022/05/27 03:38:09;;;;;;;5.95;3.50;;;10.80;99.90;;;;;;5050675;28;20040;-87
2022/05/27 03:40:58;;;;;;;4.90;3.67;;;10.70;99.90;;;;;;5033695;28;20036;-87
2022/05/27 03:43:27;;;;;;;3.60;3.15;;;10.70;99.90;;;;;;5031576;28;20729;-85
2022/05/27 03:45:58;;;;;;;4.82;3.33;;;10.60;99.90;;;;;;5032192;28;20037;-88
2022/05/27 03:48:26;;;;;;;5.05;3.25;;;10.60;99.90;;;;;;5029272;28;20041;-88
2022/05/27 03:50:57;;;;;;;5.15;3.28;;;10.60;99.90;;;;;;5057062;28;20053;-87
2022/05/27 03:54:03;;;;;;;;;;;10.60;99.90;;;;;;5046520;28;20025;-88
2022/05/27 03:56:11;;;;;;;5.47;3.30;;;10.60;99.90;;;;;;5042044;28;19909;-88
2022/05/27 03:58:37;;;;;;;5.53;3.63;;;10.70;99.90;;;;;;5041229;28;20660;-88
2022/05/27 04:01:03;;;;;;;4.75;3.65;;;10.70;99.90;;;;;;5037666;28;20458;-87
2022/05/27 04:03:28;;;;;;;5.60;3.70;;;10.70;99.90;;;;;;5040668;28;20033;-88
2022/05/27 04:05:54;;;;;;;6.57;3.53;;;10.70;99.90;;;;;;5055333;28;20518;-87
2022/05/27 04:08:20;;;;;;;4.35;3.30;;;10.70;99.90;;;;;;5048193;28;20034;-89
2022/05/27 04:10:45;;;;;;;5.10;3.47;;;10.80;99.90;;;;;;5034484;28;20701;-87
2022/05/27 04:13:11;;;;;;;6.40;3.97;;;10.80;99.90;;;;;;5033936;28;20029;-88
2022/05/27 04:15:37;;;;;;;5.65;3.30;;;10.90;99.90;;;;;;5037219;28;20037;-87
2022/05/27 04:18:04;;;;;;;4.80;3.40;;;10.90;99.90;;;;;;5048197;28;20489;-87
2022/05/27 04:20:29;;;;;;;7.72;3.70;;;11.00;99.90;;;;;;5038460;28;20079;-87
2022/05/27 04:22:55;;;;;;;6.57;3.45;;;11.10;99.90;;;;;;5040879;28;20084;-88
2022/05/27 04:25:22;;;;;;;10.02;3.67;;;11.10;99.90;;;;;;5041089;28;20065;-88
2022/05/27 04:27:48;;;;;;;8.18;5.57;;;11.10;99.90;;;;;;5042041;28;20048;-88
2022/05/27 04:30:15;;;;;;;8.80;3.67;;;11.20;99.90;;;;;;5057738;28;20514;-89
2022/05/27 04:32:41;;;;;;;4.97;3.35;;;11.20;99.90;;;;;;5033651;28;20552;-87
2022/05/27 04:35:07;;;;;;;4.47;3.45;;;11.20;99.90;;;;;;5038607;28;20044;-87
2022/05/27 04:37:34;;;;;;;5.07;3.20;;;11.20;99.90;;;;;;5035534;28;20484;-87
2022/05/27 04:40:00;;;;;;;4.70;3.85;;;11.20;99.90;;;;;;5053382;28;20029;-87
2022/05/27 04:42:25;;;;;;;6.00;3.33;;;11.30;99.90;;;;;;5032303;28;20174;-89
2022/05/27 04:44:52;;;;;;;5.63;3.60;;;11.40;99.90;;;;;;5051104;28;20045;-86
2022/05/27 04:47:17;;;;;;;5.88;4.05;;;11.50;99.90;;;;;;5039412;28;20467;-86
2022/05/27 04:49:56;;;;;;;5.03;3.10;;;11.60;99.90;;;;;;5042493;28;20029;-87
2022/05/27 04:52:30;;;;;;;6.38;3.72;;;11.70;99.90;;;;;;5042414;28;20029;-87
2022/05/27 04:54:58;;;;;;;5.57;3.33;;;11.80;99.90;;;;;;5041379;28;20128;-87
2022/05/27 04:57:32;;;;;;;4.45;3.20;;;12.00;99.90;;;;;;5011254;28;20029;-87
2022/05/27 04:59:59;;;;;;;6.15;3.65;;;12.00;99.90;;;;;;5029636;28;20033;-86
2022/05/27 05:02:25;;;;;;;8.60;3.67;;;12.20;99.90;;;;;;5029044;28;20113;-86
2022/05/27 05:04:52;;;;;;;4.60;3.53;;;12.20;99.90;;;;;;5030661;28;20025;-86
2022/05/27 05:07:22;;;;;;;7.00;3.75;;;12.30;99.90;;;;;;5033932;28;20041;-86
2022/05/27 05:09:48;;;;;;;4.07;3.45;;;12.40;99.90;;;;;;5032514;28;20037;-86
2022/05/27 05:12:13;;;;;;;4.47;3.70;;;12.50;99.90;;;;;;5029027;28;20046;-86
2022/05/27 05:14:40;;;;;;;4.22;3.42;;;12.50;99.90;;;;;;5034643;28;20034;-85
2022/05/27 05:17:07;;;;;;;6.25;3.78;;;12.50;99.90;;;;;;5050789;28;20043;-86
2022/05/27 05:19:33;;;;;;;5.95;3.70;;;12.60;99.90;;;;;;5035341;28;20408;-85
2022/05/27 05:21:59;;;;;;;3.97;3.55;;;12.70;99.90;;;;;;5030552;28;20103;-86
2022/05/27 05:24:25;;;;;;;5.30;4.05;;;12.80;99.90;;;;;;5034037;28;20496;-86
2022/05/27 05:26:51;;;;;;;5.38;4.15;;;12.80;99.90;;;;;;5032150;28;20493;-85
2022/05/27 05:29:17;;;;;;;4.53;3.47;;;12.90;99.90;;;;;;5033391;28;20029;-85
2022/05/27 05:31:42;;;;;;;7.60;3.90;;;12.90;99.90;;;;;;5030620;28;20057;-85
2022/05/27 05:34:08;;;;;;;7.13;3.88;;;13.00;99.90;;;;;;5029085;28;20092;-85
2022/05/27 05:36:34;;;;;;;6.15;3.90;;;13.10;99.90;;;;;;5013569;28;20037;-86
2022/05/27 05:39:01;;;;;;;4.47;3.15;;;13.20;99.90;;;;;;5030715;28;20029;-85
2022/05/27 05:41:31;;;;;;;4.53;2.88;;;13.20;99.90;;;;;;5012444;28;20044;-85
2022/05/27 05:43:57;;;;;;;4.45;3.45;;;13.40;99.90;;;;;;5030189;28;20041;-83
2022/05/27 05:46:24;;;;;;;6.55;4.00;;;13.40;99.90;;;;;;5027764;28;20508;-84
2022/05/27 05:48:50;;;;;;;8.18;3.38;;;13.50;99.90;;;;;;5011003;28;20037;-87
2022/05/27 05:51:16;;;;;;;7.57;3.33;;;13.50;99.90;;;;;;5046581;28;20436;-85
2022/05/27 05:53:41;;;;;;;4.85;3.20;;;13.70;99.90;;;;;;5028121;28;20030;-84
2022/05/27 05:56:07;;;;;;;5.22;2.95;;;13.80;99.90;;;;;;5042369;28;20439;-83
2022/05/27 05:58:33;;;;;;;6.22;2.63;;;14.00;99.90;;;;;;5027830;28;20037;-83
2022/05/27 06:00:58;;;;;;;3.00;2.30;;;14.20;99.90;;;;;;5030117;28;20489;-82
2022/05/27 06:03:24;;;;;;;4.85;2.50;;;14.30;99.90;;;;;;5042685;28;20472;-83
2022/05/27 06:05:52;;;;;;;8.65;2.80;;;14.40;99.90;;;;;;5027961;28;20036;-83
2022/05/27 06:08:18;;;;;;;10.73;2.65;;;14.40;99.90;;;;;;5048445;28;20045;-83
2022/05/27 06:10:46;;;;;;;4.57;2.25;;;14.40;99.90;;;;;;5032691;28;20126;-83
2022/05/27 06:13:11;;;;;;;3.03;2.00;;;14.50;99.90;;;;;;5032040;28;20504;-83
2022/05/27 06:15:37;;;;;;;5.65;2.47;;;14.60;99.90;;;;;;5026863;28;20079;-84
2022/05/27 06:18:07;;;;;;;5.97;2.80;;;14.60;99.90;;;;;;5029061;28;20029;-84
2022/05/27 06:20:35;;;;;;;4.18;2.58;;;14.70;99.90;;;;;;5031666;28;20037;-83
2022/05/27 06:23:05;;;;;;;5.43;2.53;;;14.70;99.90;;;;;;5029230;28;20060;-84
2022/05/27 06:25:31;;;;;;;5.37;1.93;;;14.90;99.90;;;;;;5027115;28;20035;-83
2022/05/27 06:36:12;;;;;;;9.60;2.22;;;15.10;99.90;;;;;;5025507;28;20068;-85
2022/05/27 06:38:38;;;;;;;6.38;2.63;;;15.20;99.90;;;;;;5028882;28;20041;-83
2022/05/27 06:41:04;;;;;;;8.80;2.88;;;15.30;99.90;;;;;;5032964;28;20038;-83
2022/05/27 06:43:31;;;;;;;4.53;2.20;;;15.40;99.90;;;;;;5029323;28;20060;-83
2022/05/27 06:45:58;;;;;;;3.53;2.55;;;15.40;99.90;;;;;;5026892;28;20045;-83
2022/05/27 06:48:23;;;;;;;4.53;2.75;;;15.50;99.80;;;;;;5028813;28;20026;-83
2022/05/27 06:50:49;;;;;;;5.85;2.25;;;15.50;99.10;;;;;;5038584;28;20581;-83
2022/05/27 06:53:14;;;;;;;5.38;2.83;;;15.60;99.90;;;;;;5025473;28;20033;-83
2022/05/27 06:55:40;;;;;;;6.65;2.50;;;15.70;98.80;;;;;;5036211;28;20041;-83
2022/05/27 06:58:06;;;;;;;4.07;2.58;;;15.80;99.90;;;;;;5038237;28;20028;-82
2022/05/27 07:00:31;;;;;;;5.90;2.60;;;15.90;99.00;;;;;;5032042;28;20048;-85
2022/05/27 07:02:57;;;;;;;6.47;2.78;;;16.10;99.90;;;;;;5032964;28;20124;-84
2022/05/27 07:05:24;;;;;;;10.23;2.85;;;16.10;97.30;;;;;;5011551;28;20132;-84
2022/05/27 07:07:50;;;;;;;4.40;2.42;;;16.10;97.60;;;;;;5025352;28;20587;-83
2022/05/27 07:10:16;;;;;;;6.32;2.70;;;16.30;96.80;;;;;;5028827;28;20703;-82
2022/05/27 07:12:42;;;;;;;3.72;2.40;;;16.40;96.90;;;;;;5034149;28;20033;-83
2022/05/27 07:15:08;;;;;;;4.85;2.80;;;16.50;95.70;;;;;;5026960;28;20070;-83
2022/05/27 07:17:35;;;;;;;3.65;2.50;;;16.30;94.80;;;;;;5022948;28;20034;-84
2022/05/27 07:20:03;;;;;;;7.30;2.90;;;16.40;95.30;;;;;;5029444;28;20043;-82
2022/05/27 07:22:29;;;;;;;4.32;2.65;;;16.60;94.50;;;;;;5012285;28;20033;-83
2022/05/27 07:24:54;;;;;;;3.78;2.45;;;16.70;95.30;;;;;;5028591;28;20080;-83
2022/05/27 07:27:20;;;;;;;3.30;2.35;;;17.00;95.10;;;;;;5011659;28;20034;-83
2022/05/27 07:29:46;;;;;;;5.32;2.83;;;16.90;94.40;;;;;;5024018;28;20084;-83
2022/05/27 07:32:12;;;;;;;4.45;2.88;;;16.80;93.50;;;;;;5033957;28;20033;-81
2022/05/27 07:34:39;;;;;;;3.30;2.50;;;16.60;94.40;;;;;;5030475;28;20026;-82
2022/05/27 07:37:04;;;;;;;4.50;2.20;;;16.60;93.30;;;;;;5029655;28;20181;-82
2022/05/27 07:39:30;;;;;;;4.10;2.72;;;16.80;93.40;;;;;;5030591;28;20033;-83
2022/05/27 07:41:56;;;;;;;6.72;2.85;;;17.00;95.40;;;;;;5031667;28;20029;-81
2022/05/27 07:44:21;;;;;;;6.13;2.65;;;17.10;95.30;;;;;;5035951;28;20030;-82
2022/05/27 07:46:51;;;;;;;3.08;2.50;;;17.00;90.40;;;;;;5017750;28;20507;-82
2022/05/27 07:49:16;;;;;;;4.22;2.75;;;17.10;91.60;;;;;;5031685;28;20028;-78
2022/05/27 07:51:42;;;;;;;3.20;2.28;;;17.20;91.70;;;;;;5029741;28;20029;-79
2022/05/27 07:54:11;;;;;;;5.10;2.97;;;17.30;90.50;;;;;;5028019;28;20036;-78
2022/05/27 07:56:39;;;;;;;3.58;2.40;;;17.40;90.70;;;;;;5031608;28;20059;-83
2022/05/27 07:59:05;;;;;;;4.70;2.45;;;17.40;92.00;;;;;;5027290;28;20021;-82
2022/05/27 08:01:31;;;;;;;3.83;2.35;;;17.40;91.10;;;;;;5050016;28;20260;-84
2022/05/27 08:03:57;;;;;;;3.33;2.65;;;17.60;91.40;;;;;;5031314;28;20034;-83
2022/05/27 08:06:23;;;;;;;4.32;2.35;;;17.70;91.20;;;;;;5050192;28;20049;-83
2022/05/27 08:08:49;;;;;;;3.80;2.70;;;17.70;89.40;;;;;;5030615;28;20029;-82
2022/05/27 08:11:15;;;;;;;4.07;2.50;;;18.10;89.90;;;;;;5036793;28;20231;-84
2022/05/27 08:13:42;;;;;;;4.78;2.47;;;18.30;87.30;;;;;;5051875;28;20029;-84
2022/05/27 08:16:08;;;;;;;6.72;2.58;;;18.30;86.30;;;;;;5028427;28;20084;-84
2022/05/27 08:18:34;;;;;;;4.45;2.67;;;18.60;87.50;;;;;;5040506;28;20040;-84
2022/05/27 08:21:00;;;;;;;3.55;2.58;;;18.60;86.10;;;;;;5031608;28;20037;-83
2022/05/27 08:23:26;;;;;;;4.63;2.13;;;18.60;83.00;;;;;;5040169;28;20447;-83
2022/05/27 08:25:54;;;;;;;2.60;2.13;;;18.60;81.70;;;;;;5020615;28;20079;-83
2022/05/27 08:28:24;;;;;;;4.63;2.50;;;18.60;85.40;;;;;;5036443;28;20032;-84
2022/05/27 08:30:50;;;;;;;5.13;2.70;;;18.50;85.20;;;;;;5034880;28;20063;-80
2022/05/27 08:33:16;;;;;;;3.78;2.80;;;18.70;89.10;;;;;;5032989;28;20037;-80
2022/05/27 08:38:32;;;;;;;4.50;2.97;;;18.60;82.80;;;;;;5030881;28;20047;-82
2022/05/27 08:41:16;;;;;;;3.55;2.40;;;18.70;81.10;;;;;;5027566;28;20033;-83
2022/05/27 08:43:45;;;;;;;2.58;2.10;;;19.10;84.40;;;;;;5042023;28;20544;-77
2022/05/27 08:46:22;;;;;;;5.35;2.40;;;19.80;90.10;;;;;;5029183;28;20099;-81
2022/05/27 08:48:54;;;;;;;5.68;2.63;;;19.80;77.30;;;;;;5040218;28;20108;-78
2022/05/27 08:51:26;;;;;;;8.90;3.10;;;19.60;77.00;;;;;;5035924;28;20030;-79
2022/05/27 08:54:06;;;;;;;5.13;2.90;;;19.60;75.50;;;;;;5032812;28;20025;-80
2022/05/27 08:59:27;;;;;;;5.35;3.22;;;19.10;80.20;;;;;;5038938;28;20056;-79
2022/05/27 09:02:08;;;;;;;4.63;2.42;;;19.60;81.60;;;;;;5026722;28;20348;-78
2022/05/27 09:05:00;;;;;;;7.18;2.92;;;19.90;80.80;;;;;;5033773;28;20032;-79
2022/05/27 09:07:31;;;;;;;4.63;2.40;;;20.00;75.60;;;;;;5004128;28;20037;-79
2022/05/27 09:10:03;;;;;;;5.20;3.05;;;19.90;73.50;;;;;;5033924;28;20041;-81
2022/05/27 09:12:48;;;;;;;5.57;3.25;;;20.10;73.50;;;;;;5030190;28;20022;-80
2022/05/27 09:15:20;;;;;;;9.00;3.90;;;20.50;74.80;;;;;;5027797;28;20052;-80
2022/05/27 09:18:06;;;;;;;25.13;8.32;;;20.70;74.60;;;;;;5036166;28;20104;-80
2022/05/27 10:16:57;;;;;;;3.88;2.60;;;20.90;64.70;;;;;;5058275;28;20891;-83
2022/05/27 10:19:25;;;;;;;5.10;3.50;;;21.00;66.50;;;;;;5056336;28;20033;-83
2022/05/27 10:22:03;;;;;;;22.40;6.85;;;21.00;65.10;;;;;;5046763;28;20022;-83
2022/05/27 10:24:34;;;;;;;5.53;2.67;;;21.70;66.80;;;;;;5027775;28;20112;-83
2022/05/27 10:27:17;;;;;;;3.97;2.38;;;22.00;66.20;;;;;;5045137;28;20021;-84
2022/05/27 10:30:06;;;;;;;4.25;2.42;;;21.50;63.40;;;;;;5043370;28;20035;-83
2022/05/27 10:32:33;;;;;;;4.25;2.22;;;21.00;63.80;;;;;;5039740;28;20048;-84
2022/05/27 10:35:02;;;;;;;5.57;2.80;;;21.00;63.00;;;;;;5062175;28;20116;-83
2022/05/27 10:37:37;;;;;;;3.53;2.35;;;21.30;64.20;;;;;;5045648;28;20114;-85
2022/05/27 10:40:15;;;;;;;5.05;2.30;;;21.60;61.60;;;;;;5045833;28;20385;-84
2022/05/27 10:43:05;;;;;;;5.63;2.30;;;21.60;60.90;;;;;;5039845;28;20180;-83
2022/05/27 10:45:33;;;;;;;5.18;2.90;;;22.20;64.50;;;;;;5034643;28;20040;-84
2022/05/27 10:48:23;;;;;;;2.67;2.30;;;21.70;60.60;;;;;;5044762;28;20025;-84
2022/05/27 10:51:00;;;;;;;3.58;2.13;;;21.50;59.80;;;;;;5045594;28;20043;-84
2022/05/27 10:53:54;;;;;;;5.28;2.50;;;21.90;63.30;;;;;;5039204;28;20091;-81
2022/05/27 10:56:26;;;;;;;2.92;2.25;;;22.10;60.10;;;;;;5041458;28;20085;-81
2022/05/27 11:02:05;;;;;;;2.88;2.22;;;21.70;62.20;;;;;;5031830;28;20130;-81
2022/05/27 11:04:53;;;;;;;2.70;2.20;;;21.70;62.60;;;;;;5044681;28;20105;-81
2022/05/27 11:07:48;;;;;;;4.07;2.22;;;22.20;59.70;;;;;;5045773;28;20052;-81
2022/05/27 11:10:28;;;;;;;3.42;2.33;;;22.40;58.40;;;;;;5043044;28;20105;-81
2022/05/27 11:16:17;;;;;;;6.65;2.55;;;21.30;63.00;;;;;;5045059;28;20442;-82
2022/05/27 11:19:14;;;;;;;4.55;2.40;;;21.20;63.50;;;;;;5038056;28;20051;-82
2022/05/27 11:21:58;;;;;;;5.78;2.45;;;21.00;64.10;;;;;;5033304;28;20120;-82
2022/05/27 11:24:35;;;;;;;2.97;2.30;;;21.00;65.40;;;;;;5042940;28;20095;-82
2022/05/27 11:27:10;;;;;;;3.95;2.72;;;22.10;60.70;;;;;;5036794;28;20074;-82
2022/05/27 11:29:52;;;;;;;3.17;1.98;;;23.10;59.20;;;;;;5031967;28;20036;-82
2022/05/27 11:32:38;;;;;;;3.20;2.25;;;23.70;55.50;;;;;;5029183;28;20036;-82
2022/05/27 11:35:27;;;;;;;3.45;2.47;;;24.20;52.60;;;;;;5024773;28;20033;-83
2022/05/27 11:38:18;;;;;;;3.20;2.28;;;24.40;53.60;;;;;;5028874;28;20030;-82
2022/05/27 11:41:10;;;;;;;3.10;2.15;;;24.30;53.20;;;;;;5026706;28;20096;-82
2022/05/27 11:43:53;;;;;;;3.38;2.50;;;24.30;55.60;;;;;;5026153;28;20674;-83
2022/05/27 11:46:25;;;;;;;2.33;2.13;;;24.50;52.90;;;;;;5023039;28;20068;-83
2022/05/27 11:49:09;;;;;;;2.90;2.47;;;24.90;50.80;;;;;;5025999;28;20037;-82
2022/05/27 11:51:44;;;;;;;3.13;2.03;;;24.60;48.40;;;;;;5020739;28;20350;-83
2022/05/27 11:54:30;;;;;;;4.15;2.60;;;26.20;47.50;;;;;;5026243;28;20025;-83
2022/05/27 11:57:11;;;;;;;3.90;2.03;;;26.10;46.30;;;;;;5027749;28;20163;-83
2022/05/27 11:59:46;;;;;;;6.45;2.20;;;24.70;48.60;;;;;;5023603;28;20504;-83
2022/05/27 12:02:35;;;;;;;5.75;2.40;;;25.20;50.90;;;;;;5025133;28;20427;-83
2022/05/27 12:05:22;;;;;;;2.53;1.85;;;26.20;47.10;;;;;;5031859;28;20025;-83
2022/05/27 12:08:29;;;;;;;5.45;2.50;;;26.90;44.90;;;;;;5012760;28;20397;-83
2022/05/27 12:11:26;;;;;;;4.50;2.75;;;25.00;49.10;;;;;;5007450;28;20053;-83
2022/05/27 12:13:55;;;;;;;5.78;2.50;;;24.00;51.40;;;;;;5022395;28;20466;-83
2022/05/27 12:16:31;;;;;;;2.92;1.83;;;23.90;51.20;;;;;;5029927;28;20448;-83
2022/05/27 12:19:20;;;;;;;3.42;2.33;;;23.60;51.30;;;;;;5029104;28;20026;-83
2022/05/27 12:22:07;;;;;;;10.25;2.30;;;23.50;53.70;;;;;;5018885;28;20037;-83
2022/05/27 12:24:37;;;;;;;2.90;2.20;;;23.00;55.00;;;;;;5030864;28;20041;-83
2022/05/27 12:27:06;;;;;;;2.72;2.17;;;23.20;54.50;;;;;;5027384;28;20014;-83
2022/05/27 12:29:33;;;;;;;4.20;2.25;;;23.50;55.60;;;;;;5010721;28;20080;-83
2022/05/27 12:31:59;;;;;;;4.47;2.22;;;23.30;53.50;;;;;;5027384;28;20053;-83
2022/05/27 12:34:28;;;;;;;2.17;1.92;;;24.60;50.90;;;;;;5024249;28;20105;-83
2022/05/27 12:36:58;;;;;;;4.53;2.70;;;24.20;49.30;;;;;;5031404;28;20025;-83
2022/05/27 12:39:26;;;;;;;3.15;2.33;;;23.40;53.70;;;;;;5029358;28;20045;-82
2022/05/27 12:42:13;;;;;;;5.30;2.65;;;24.40;52.40;;;;;;5031470;28;20799;-83
2022/05/27 12:44:40;;;;;;;4.30;2.15;;;25.30;48.80;;;;;;5019835;28;20025;-82
2022/05/27 12:47:23;;;;;;;2.85;2.05;;;25.00;50.50;;;;;;5027045;28;20116;-83
2022/05/27 12:50:13;;;;;;;2.40;1.90;;;24.70;49.20;;;;;;5029252;28;20092;-83
2022/05/27 12:52:43;;;;;;;4.07;2.10;;;25.80;48.70;;;;;;5012134;28;20049;-83
2022/05/27 12:55:33;;;;;;;4.82;1.85;;;26.50;46.30;;;;;;5027316;28;20103;-84
2022/05/27 13:01:20;;;;;;;3.13;1.98;;;27.70;41.80;;;;;;5024390;28;20063;-83
2022/05/27 13:03:49;;;;;;;3.08;2.00;;;26.20;42.70;;;;;;5019233;28;20041;-84
2022/05/27 13:06:26;;;;;;;2.80;2.20;;;27.40;43.60;;;;;;5025231;28;20030;-87
2022/05/27 13:08:52;;;;;;;5.68;2.60;;;28.60;41.30;;;;;;5027327;28;20109;-85
2022/05/27 13:11:24;;;;;;;3.38;2.17;;;27.50;42.10;;;;;;5034497;28;20117;-84
2022/05/27 13:14:04;;;;;;;4.13;2.10;;;27.40;41.70;;;;;;5013586;28;20022;-84
2022/05/27 13:16:48;;;;;;;2.22;1.67;;;28.30;41.00;;;;;;5029828;28;20421;-84
2022/05/27 13:19:23;;;;;;;3.10;1.98;;;26.50;43.00;;;;;;5022079;28;20381;-85
2022/05/27 13:22:02;;;;;;;3.08;2.20;;;25.50;47.50;;;;;;5028489;28;20033;-84
2022/05/27 13:24:36;;;;;;;3.47;1.90;;;24.60;46.70;;;;;;5026460;28;20022;-85
2022/05/27 13:27:27;;;;;;;3.50;2.08;;;24.90;46.70;;;;;;5011510;28;20018;-85
2022/05/27 13:30:01;;;;;;;2.97;1.90;;;26.10;46.40;;;;;;5016339;28;20021;-84
2022/05/27 13:32:34;;;;;;;3.08;1.98;;;25.40;41.80;;;;;;5016178;28;20114;-85
2022/05/27 13:35:13;;;;;;;3.25;2.08;;;24.80;43.10;;;;;;5026415;28;20026;-85
2022/05/27 13:37:39;;;;;;;2.00;1.80;;;26.00;40.20;;;;;;5029297;28;20026;-85
2022/05/27 13:40:11;;;;;;;2.35;1.85;;;24.50;43.60;;;;;;5046015;28;20022;-85
2022/05/27 13:43:01;;;;;;;2.53;1.80;;;23.50;46.20;;;;;;5030124;28;20025;-85
2022/05/27 13:45:37;;;;;;;2.47;1.85;;;22.60;50.10;;;;;;5029084;28;20036;-86
2022/05/27 13:48:25;;;;;;;2.63;2.10;;;24.20;48.00;;;;;;5030837;28;20029;-84
2022/05/27 13:51:09;;;;;;;5.90;2.30;;;25.60;44.00;;;;;;5024613;28;20064;-85
2022/05/27 13:53:38;;;;;;;2.10;1.73;;;24.20;45.00;;;;;;5031413;28;20021;-84
2022/05/27 13:56:23;;;;;;;2.05;1.70;;;23.50;47.10;;;;;;5046795;28;20413;-85
2022/05/27 13:59:16;;;;;;;2.97;1.70;;;24.80;45.50;;;;;;5010595;28;20026;-85
2022/05/27 14:02:00;;;;;;;4.03;1.95;;;26.50;40.10;;;;;;5016964;28;20049;-86
2022/05/27 14:04:44;;;;;;;3.13;1.88;;;25.50;40.70;;;;;;5029706;28;20032;-86
2022/05/27 14:07:28;;;;;;;3.13;2.00;;;24.60;44.00;;;;;;5029724;28;20503;-85
2022/05/27 14:10:07;;;;;;;4.93;1.92;;;23.20;47.00;;;;;;5045355;28;20068;-85
2022/05/27 14:12:35;;;;;;;5.22;2.25;;;25.60;42.90;;;;;;5046343;28;20029;-86
2022/05/27 14:15:04;;;;;;;2.35;1.75;;;26.60;40.20;;;;;;5013491;28;20160;-87
2022/05/27 14:17:39;;;;;;;2.30;1.98;;;27.30;39.50;;;;;;5029634;28;20120;-87
2022/05/27 14:22:39;;;;;;;2.63;1.50;;;28.10;36.60;;;;;;5045108;28;20045;-87
2022/05/27 14:23:19;;;;;;;2.15;1.80;;;27.50;37.40;;;;;;5018459;28;20037;-86
2022/05/27 14:25:46;;;;;;;3.85;2.00;;;27.70;37.70;;;;;;5028498;28;20034;-86
2022/05/27 14:28:44;;;;;;;3.72;1.73;;;27.50;37.70;;;;;;5062865;28;20063;-87
2022/05/27 14:31:39;;;;;;;2.15;1.77;;;27.20;37.10;;;;;;5039557;28;20124;-86
2022/05/27 14:34:10;;;;;;;2.45;1.73;;;27.70;37.20;;;;;;5038235;28;20049;-86
2022/05/27 14:36:54;;;;;;;3.25;1.95;;;27.20;38.50;;;;;;5060064;28;20059;-86
2022/05/27 14:39:21;;;;;;;4.00;1.80;;;27.30;37.70;;;;;;5054518;28;20035;-86
2022/05/27 14:41:48;;;;;;;5.15;1.83;;;27.60;38.00;;;;;;5056949;28;20399;-86
2022/05/27 14:44:38;;;;;;;3.08;2.00;;;27.80;37.10;;;;;;5046929;28;20511;-86
2022/05/27 14:47:22;;;;;;;3.38;2.03;;;26.20;39.80;;;;;;5051343;28;20194;-87